createdAt,value
2022-11-26T00:03:28.506Z,101229.84
2022-11-26T00:08:35.551Z,101229.72
2022-11-26T00:13:38.136Z,101235.63
2022-11-26T00:18:40.701Z,101232.16
2022-11-26T00:23:46.590Z,101227.91
2022-11-26T00:28:52.512Z,101233.97
2022-11-26T00:33:55.371Z,101247.94
2022-11-26T00:39:03.013Z,101253.66
2022-11-26T00:44:14.580Z,101253.50
2022-11-26T00:49:19.435Z,101262.09
2022-11-26T00:54:24.283Z,101263.91
2022-11-26T00:59:26.972Z,101264.59
2022-11-26T01:04:29.654Z,101270.88
2022-11-26T01:09:34.173Z,101280.56
2022-11-26T01:14:36.934Z,101286.31
2022-11-26T01:19:39.638Z,101281.25
2022-11-26T01:24:43.563Z,101290.03
2022-11-26T01:29:46.257Z,101291.88
2022-11-26T01:34:48.977Z,101297.88
2022-11-26T01:39:52.974Z,101299.56
2022-11-26T01:44:55.565Z,101308.63
2022-11-26T01:50:35.738Z,101303.63
2022-11-26T01:55:42.673Z,101310.00
2022-11-26T02:00:45.637Z,101322.19
2022-11-26T02:05:57.180Z,101328.66
2022-11-26T02:11:03.572Z,101339.78
2022-11-26T02:16:17.376Z,101333.50
2022-11-26T02:21:27.483Z,101335.03
2022-11-26T02:27:08.477Z,101345.91
2022-11-26T02:32:17.521Z,101343.53
2022-11-26T02:37:26.388Z,101345.19
2022-11-26T02:42:33.336Z,101357.59
2022-11-26T02:47:40.817Z,101359.22
2022-11-26T02:52:44.448Z,101368.22
2022-11-26T02:57:49.352Z,101372.13
2022-11-26T03:02:59.588Z,101377.78
2022-11-26T03:08:03.787Z,101388.16
2022-11-26T03:13:06.592Z,101399.84
2022-11-26T03:18:10.592Z,101411.88
2022-11-26T03:23:13.308Z,101413.19
2022-11-26T03:28:15.888Z,101426.16
2022-11-26T03:33:20.163Z,101428.06
2022-11-26T03:38:22.821Z,101429.38
2022-11-26T03:43:25.550Z,101431.63
2022-11-26T03:48:29.463Z,101439.50
2022-11-26T03:53:32.123Z,101440.09
2022-11-26T03:58:34.690Z,101441.41
2022-11-26T04:03:39.182Z,101447.19
2022-11-26T04:08:41.783Z,101445.88
2022-11-26T04:13:44.459Z,101465.25
2022-11-26T04:18:48.420Z,101468.53
2022-11-26T04:23:51.107Z,101473.59
2022-11-26T04:28:53.723Z,101477.66
2022-11-26T04:33:57.618Z,101492.16
2022-11-26T04:39:00.220Z,101506.00
2022-11-26T04:44:02.856Z,101511.78
2022-11-26T04:49:06.923Z,101518.78
2022-11-26T04:54:13.024Z,101523.09
2022-11-26T04:59:15.970Z,101535.22
2022-11-26T05:04:20.208Z,101539.03
2022-11-26T05:09:23.190Z,101538.31
2022-11-26T05:14:26.086Z,101544.72
2022-11-26T05:19:30.104Z,101538.59
2022-11-26T05:24:32.686Z,101548.81
2022-11-26T05:29:35.299Z,101554.88
2022-11-26T05:34:39.340Z,101562.44
2022-11-26T05:39:41.999Z,101571.63
2022-11-26T05:44:44.554Z,101580.50
2022-11-26T05:49:48.437Z,101592.53
2022-11-26T05:54:51.080Z,101600.16
2022-11-26T05:59:53.710Z,101595.47
2022-11-26T06:04:57.637Z,101598.94
2022-11-26T06:10:00.280Z,101607.03
2022-11-26T06:15:02.923Z,101604.00
2022-11-26T06:20:08.218Z,101606.16
2022-11-26T06:25:13.773Z,101618.63
2022-11-26T06:30:16.447Z,101621.28
2022-11-26T06:35:21.630Z,101625.22
2022-11-26T06:40:24.283Z,101633.66
2022-11-26T06:45:27.111Z,101645.94
2022-11-26T06:50:31.093Z,101648.19
2022-11-26T06:55:33.681Z,101650.94
2022-11-26T07:00:36.269Z,101655.94
2022-11-26T07:05:40.155Z,101664.50
2022-11-26T07:10:49.153Z,101672.31
2022-11-26T07:15:52.099Z,101660.53
2022-11-26T07:20:56.054Z,101665.16
2022-11-26T07:25:59.415Z,101675.66
2022-11-26T07:31:04.887Z,101677.31
2022-11-26T07:36:15.055Z,101676.47
2022-11-26T07:41:20.056Z,101679.84
2022-11-26T07:46:25.366Z,101686.94
2022-11-26T07:51:31.505Z,101692.66
2022-11-26T07:56:34.736Z,101690.00
2022-11-26T08:01:40.584Z,101699.00
2022-11-26T08:06:45.668Z,101710.00
2022-11-26T08:11:48.545Z,101709.16
2022-11-26T08:16:51.236Z,101715.53
2022-11-26T08:21:55.192Z,101725.22
2022-11-26T08:27:00.800Z,101731.75
2022-11-26T08:32:03.570Z,101740.75
2022-11-26T08:37:07.451Z,101750.91
2022-11-26T08:42:10.016Z,101750.34
2022-11-26T08:47:14.210Z,101754.22
2022-11-26T08:52:18.120Z,101762.22
2022-11-26T08:57:20.744Z,101768.22
2022-11-26T09:02:23.480Z,101769.06
2022-11-26T09:07:27.435Z,101770.44
2022-11-26T09:12:29.984Z,101790.94
2022-11-26T09:17:32.562Z,101785.13
2022-11-26T09:22:36.825Z,101796.53
2022-11-26T09:27:39.542Z,101783.72
2022-11-26T09:32:42.138Z,101793.91
2022-11-26T09:37:50.166Z,101789.53
2022-11-26T09:43:06.895Z,101792.88
2022-11-26T09:48:16.284Z,101789.13
2022-11-26T09:53:29.435Z,101790.13
2022-11-26T09:58:41.566Z,101790.50
2022-11-26T10:03:44.203Z,101792.47
2022-11-26T10:09:04.681Z,101789.03
2022-11-26T10:14:19.718Z,101788.28
2022-11-26T10:19:31.533Z,101791.19
2022-11-26T10:24:41.895Z,101795.63
2022-11-26T10:29:53.117Z,101800.41
2022-11-26T10:34:57.380Z,101810.22
2022-11-26T10:40:17.139Z,101812.53
2022-11-26T10:45:22.044Z,101807.41
2022-11-26T10:55:52.697Z,101803.22
2022-11-26T11:01:02.184Z,101799.75
2022-11-26T11:06:13.711Z,101800.25
2022-11-26T11:11:21.564Z,101804.94
2022-11-26T11:16:28.516Z,101794.69
2022-11-26T11:21:34.740Z,101795.88
2022-11-26T11:26:44.269Z,101796.69
2022-11-26T11:31:48.501Z,101805.63
2022-11-26T11:37:02.482Z,101806.03
2022-11-26T11:42:23.641Z,101816.00
2022-11-26T11:47:35.407Z,101814.28
2022-11-26T11:52:54.539Z,101824.34
2022-11-26T11:58:14.485Z,101815.53
2022-11-26T12:03:49.841Z,101826.16
2022-11-26T12:09:03.490Z,101826.09
2022-11-26T12:14:14.495Z,101833.03
2022-11-26T12:19:24.568Z,101841.59
2022-11-26T12:24:44.919Z,101830.94
2022-11-26T12:29:54.190Z,101828.75
2022-11-26T12:34:59.149Z,101830.47
2022-11-26T12:40:05.632Z,101828.19
2022-11-26T12:45:18.570Z,101823.78
2022-11-26T12:50:27.227Z,101822.31
2022-11-26T12:55:37.161Z,101830.78
2022-11-26T13:00:44.450Z,101835.03
2022-11-26T13:05:57.133Z,101836.09
2022-11-26T13:11:12.476Z,101837.03
2022-11-26T13:16:24.539Z,101850.25
2022-11-26T13:21:39.509Z,101847.09
2022-11-26T13:26:57.742Z,101840.34
2022-11-26T13:32:20.231Z,101836.94
2022-11-26T13:37:42.553Z,101840.41
2022-11-26T13:43:03.108Z,101842.13
2022-11-26T13:48:11.756Z,101838.63
2022-11-26T13:53:25.082Z,101841.22
2022-11-26T13:58:33.818Z,101850.19
2022-11-26T14:03:48.409Z,101846.03
2022-11-26T14:08:51.707Z,101848.22
2022-11-26T14:14:33.550Z,101854.63
2022-11-26T14:20:00.846Z,101851.09
2022-11-26T14:25:06.075Z,101854.53
2022-11-26T14:30:22.597Z,101855.53
2022-11-26T14:35:33.587Z,101853.88
2022-11-26T14:40:38.803Z,101852.16
2022-11-26T14:45:47.063Z,101857.88
2022-11-26T14:50:49.813Z,101858.91
2022-11-26T14:55:53.995Z,101856.81
2022-11-26T15:01:18.961Z,101854.63
2022-11-26T15:06:26.057Z,101859.03
2022-11-26T15:11:28.731Z,101857.34
2022-11-26T15:16:37.925Z,101869.88
2022-11-26T15:21:41.918Z,101881.41
2022-11-26T15:26:47.492Z,101890.53
2022-11-26T15:31:51.405Z,101884.03
2022-11-26T15:36:54.070Z,101888.25
2022-11-26T15:42:01.535Z,101895.16
2022-11-26T15:47:06.765Z,101888.84
2022-11-26T15:52:13.108Z,101889.44
2022-11-26T15:57:23.923Z,101895.16
2022-11-26T16:02:31.272Z,101893.16
2022-11-26T16:07:34.845Z,101900.81
2022-11-26T16:12:40.665Z,101901.91
2022-11-26T16:17:44.733Z,101897.69
2022-11-26T16:22:52.957Z,101901.38
2022-11-26T16:28:10.155Z,101883.31
2022-11-26T16:33:34.489Z,101886.91
2022-11-26T16:38:37.796Z,101884.34
2022-11-26T16:44:39.764Z,101896.38
2022-11-26T16:55:36.945Z,101901.00
2022-11-26T17:01:14.319Z,101905.56
2022-11-26T17:07:03.663Z,101905.25
2022-11-26T17:12:54.553Z,101922.91
2022-11-26T17:30:51.436Z,101941.91
2022-11-26T17:42:22.751Z,101943.53
2022-11-26T17:47:27.801Z,101950.22
2022-11-26T17:52:40.076Z,101939.13
2022-11-26T17:57:52.686Z,101936.72
2022-11-26T18:03:02.323Z,101941.41
2022-11-26T18:08:07.121Z,101938.53
2022-11-26T18:13:10.526Z,101938.00
2022-11-26T18:25:20.033Z,101945.03
2022-11-26T18:43:16.076Z,101923.38
2022-11-26T19:01:33.500Z,101921.06
2022-11-26T19:06:36.127Z,101924.63
2022-11-26T19:11:38.804Z,101919.44
2022-11-26T19:16:49.334Z,101914.00
2022-11-26T19:21:55.520Z,101917.34
2022-11-26T19:27:00.550Z,101918.31
2022-11-26T19:32:04.473Z,101921.84
2022-11-26T19:37:07.081Z,101924.88
2022-11-26T19:42:09.854Z,101923.78
2022-11-26T19:47:13.739Z,101917.31
2022-11-26T19:52:16.304Z,101925.34
2022-11-26T19:57:19.177Z,101929.41
2022-11-26T20:02:23.203Z,101913.16
2022-11-26T20:07:25.861Z,101923.75
2022-11-26T20:12:28.551Z,101919.97
2022-11-26T20:17:32.510Z,101911.56
2022-11-26T20:22:37.446Z,101915.69
2022-11-26T20:27:40.242Z,101921.50
2022-11-26T20:32:45.418Z,101917.28
2022-11-26T20:37:48.085Z,101927.19
2022-11-26T20:42:51.392Z,101930.03
2022-11-26T20:47:57.120Z,101928.53
2022-11-26T20:52:59.784Z,101921.34
2022-11-26T20:58:02.377Z,101926.38
2022-11-26T21:03:06.355Z,101923.19
2022-11-26T21:08:09.022Z,101919.03
2022-11-26T21:13:14.452Z,101916.44
2022-11-26T21:18:18.383Z,101919.63
2022-11-26T21:23:20.932Z,101916.09
2022-11-26T21:28:23.521Z,101907.03
2022-11-26T21:33:27.409Z,101906.75
2022-11-26T21:38:29.951Z,101909.66
2022-11-26T21:43:32.770Z,101904.03
2022-11-26T21:48:36.711Z,101903.34
2022-11-26T21:53:39.580Z,101904.69
2022-11-26T21:58:42.457Z,101911.00
2022-11-26T22:03:49.987Z,101908.88
2022-11-26T22:08:52.937Z,101907.63
2022-11-26T22:13:56.149Z,101910.44
2022-11-26T22:19:01.470Z,101906.13
2022-11-26T22:24:05.324Z,101916.59
2022-11-26T22:29:07.908Z,101908.50
2022-11-26T22:34:14.432Z,101912.84
2022-11-26T22:39:20.155Z,101923.22
2022-11-26T22:44:23.055Z,101926.31
2022-11-26T22:49:27.406Z,101922.88
2022-11-26T22:54:29.943Z,101930.31
2022-11-26T22:59:32.483Z,101936.88
2022-11-26T23:04:36.383Z,101934.38
2022-11-26T23:09:43.761Z,101918.75
2022-11-26T23:14:49.057Z,101924.75
2022-11-26T23:19:52.950Z,101925.44
2022-11-26T23:24:55.551Z,101927.13
2022-11-26T23:29:58.349Z,101923.69
2022-11-26T23:35:02.958Z,101924.78
2022-11-26T23:40:07.402Z,101923.56
2022-11-26T23:45:10.775Z,101909.53
2022-11-26T23:50:15.561Z,101910.22
2022-11-26T23:55:18.313Z,101902.56
